Nearby METAR Reports

 

KMTN - Baltimore/Martin, Maryland, USA
Distance from station: SSE 8mi, 13km
Updated: Sun, 02-Aug-2015 5:45am EDT
Partly cloudy
Partly cloudy
 Wind from WNW
Wind: WNW 5 mph , 7 km/h
Temperature: 68°F , 20°C
Dew Point: 64°F , 18°C
Humidity: 88%
Barometer: 29.92 inHg , 1013.2 hPa
Clouds: Partly cloudy
Visibility: 10 miles , 16 km
Cloud details: Partly cloudy 15000 ft
2015/08/02 09:45 KMTN 020945Z 29004KT 10SM SCT150 20/18 A2992 RMK FIRST
KDMH - Baltimore/Dwntwn, Maryland, USA
Distance from station: SW 12mi, 19km
Updated: Sun, 02-Aug-2015 5:54am EDT

 
Temperature: 73°F , 23°C
Dew Point: 57°F , 14°C
Humidity: 57%
Barometer: 29.92 inHg , 1013.2 hPa
2015/08/02 09:54 KDMH 020954Z AUTO 23/14 A2992 RMK AO1 SLP130 T02330144
 
KBWI - Balto/Wash Intl, Maryland, USA
Distance from station: SSW 20mi, 33km
Updated: Sun, 02-Aug-2015 5:54am EDT
Partly cloudy
Partly cloudy
 Wind from calm
Wind: Calm
Temperature: 66°F , 19°C
Dew Point: 61°F , 16°C
Humidity: 83%
Barometer: 29.91 inHg , 1012.9 hPa
Clouds: Partly cloudy
Visibility: 10 miles , 16 km
Cloud details: Partly cloudy 10000 ft
2015/08/02 09:54 KBWI 020954Z 00000KT 10SM SCT100 19/16 A2991 RMK AO2 SLP128 T01890156
KDMW - Carroll Cnty, Maryland, USA
Distance from station: WNW 30mi, 48km
Updated: Sun, 02-Aug-2015 6:05am EDT
Clear
Clear
 Wind from calm
Wind: Calm
Temperature: 64°F , 18°C
Dew Point: 59°F , 15°C
Humidity: 83%
Barometer: 29.94 inHg , 1013.9 hPa
Clouds: Clear
Visibility: 10 miles , 16 km
2015/08/02 10:05 KDMW 021005Z AUTO 00000KT 10SM CLR 18/15 A2994 RMK AO2
 
KNAK - Annapolis/Naval, Maryland, USA
Distance from station: S 30mi, 48km
Updated: Sun, 02-Aug-2015 5:54am EDT
Mostly cloudy
Mostly cloudy
 Wind from WNW
Wind: WNW 3 mph , 6 km/h
Temperature: 70°F , 21°C
Dew Point: 64°F , 18°C
Humidity: 83%
Barometer: 29.90 inHg , 1012.5 hPa
Clouds: Mostly cloudy
Visibility: 10 miles , 16 km
Cloud details: Mostly cloudy 9500 ft
2015/08/02 09:54 KNAK 020954Z AUTO 29003KT 10SM BKN095 21/18 A2990 RMK AO2 SLP127 T02110178
KW29 - Stevensville, Maryland, USA
Distance from station: SSE 31mi, 50km
Updated: Sun, 02-Aug-2015 6:06am EDT

 Wind from calm
Wind: Calm
Temperature: 73°F , 23°C
Dew Point: 64°F , 18°C
Humidity: 74%
Barometer: 29.91 inHg , 1012.9 hPa
Visibility: 10 miles , 16 km
2015/08/02 10:06 KW29 021006Z AUTO 00000KT 10SM 23/18 A2991 RMK AO1
 
KCGS - College Park, Maryland, USA
Distance from station: SW 38mi, 61km
Updated: Sun, 02-Aug-2015 6:00am EDT
Mostly cloudy
Mostly cloudy
 Wind from calm
Wind: Calm
Temperature: 63°F , 17°C
Dew Point: 63°F , 17°C
Humidity: 100%
Barometer: 29.92 inHg , 1013.2 hPa
Clouds: Mostly cloudy
Visibility: 10 miles , 16 km
Cloud details: Mostly cloudy 9000 ft
2015/08/02 10:00 KCGS 021000Z AUTO 00000KT 10SM BKN090 17/17 A2992 RMK AO1
KGAI - Gaithersburg, Maryland, USA
Distance from station: WSW 40mi, 65km
Updated: Sun, 02-Aug-2015 5:55am EDT
Partly cloudy
Partly cloudy
 Wind from calm
Wind: Calm
Temperature: 63°F , 17°C
Dew Point: 57°F , 14°C
Humidity: 83%
Barometer: 29.98 inHg , 1015.2 hPa
Clouds: Partly cloudy
Visibility: 10 miles , 16 km
Cloud details: Partly cloudy 9000 ft
2015/08/02 09:55 KGAI 020955Z AUTO 00000KT 10SM SCT090 17/14 A2998 RMK AO1
 
KTHV - York, Pennsylvania, USA
Distance from station: NNW 40mi, 65km
Updated: Sun, 02-Aug-2015 5:53am EDT
Clear
Clear
 Wind from calm
Wind: Calm
Temperature: 57°F , 14°C
Dew Point: 55°F , 13°C
Humidity: 94%
Barometer: 29.93 inHg , 1013.5 hPa
Clouds: Clear
Visibility: 9 miles , 14 km
2015/08/02 09:53 KTHV 020953Z AUTO 00000KT 9SM CLR 14/13 A2993 RMK AO2 SLP133 T01440133
KFDK - Frederick, Maryland, USA
Distance from station: W 47mi, 75km
Updated: Sun, 02-Aug-2015 6:05am EDT
Clear
Clear
 Wind from calm
Wind: Calm
Temperature: 59°F , 15°C
Dew Point: 59°F , 15°C
Humidity: 100%
Barometer: 29.97 inHg , 1014.9 hPa
Clouds: Clear
Visibility: 10 miles , 16 km
2015/08/02 10:05 KFDK 021005Z AUTO 00000KT 10SM CLR 15/15 A2997 RMK AO2
 
KESN - Easton/Newnam, Maryland, USA
Distance from station: SSE 48mi, 78km
Updated: Sun, 02-Aug-2015 5:55am EDT
Clear
Clear
 Wind from calm
Wind: Calm
Temperature: 68°F , 20°C
Dew Point: 68°F , 20°C
Humidity: 100%
Barometer: 29.94 inHg , 1013.9 hPa
Clouds: Clear
Visibility: 10 miles , 16 km
2015/08/02 09:55 KESN 020955Z AUTO 00000KT 10SM CLR 20/20 A2994 RMK AO2 T02030203
KDCA - Washington/Natl, Washington D.c., USA
Distance from station: SW 49mi, 79km
Updated: Sun, 02-Aug-2015 5:52am EDT
Partly cloudy
Partly cloudy
 Wind from N
Wind: N 6 mph , 9 km/h
Temperature: 73°F , 23°C
Dew Point: 61°F , 16°C
Humidity: 65%
Barometer: 29.93 inHg , 1013.5 hPa
Clouds: Partly cloudy
Visibility: 10 miles , 16 km
Cloud details: Few Clouds 7500 ft
Partly cloudy 8500 ft
2015/08/02 09:52 KDCA 020952Z 36005KT 10SM FEW075 SCT085 23/16 A2993 RMK AO2 SLP133 T02330156
 
KLNS - Lancaster, Pennsylvania, USA
Distance from station: N 49mi, 79km
Updated: Sun, 02-Aug-2015 5:53am EDT
Clear
Clear
 Wind from N
Wind: N 5 mph , 7 km/h
Temperature: 57°F , 14°C
Dew Point: 57°F , 14°C
Humidity: 100%
Barometer: 29.92 inHg , 1013.2 hPa
Clouds: Clear
Visibility: 10 miles , 16 km
2015/08/02 09:53 KLNS 020953Z 36004KT 10SM CLR 14/14 A2992 RMK AO2 SLP129 T01440139
KILG - Wilmington, Delaware, USA
Distance from station: ENE 50mi, 81km
Updated: Sun, 02-Aug-2015 5:51am EDT
Clear
Clear
 Wind from calm
Wind: Calm
Temperature: 66°F , 19°C
Dew Point: 59°F , 15°C
Humidity: 78%
Barometer: 29.91 inHg , 1012.9 hPa
Clouds: Clear
Visibility: 10 miles , 16 km
2015/08/02 09:51 KILG 020951Z AUTO 00000KT 10SM CLR 19/15 A2991 RMK AO2 SLP127 T01940150